sensor_id;sensor_type;location;lat;lon;timestamp;P1;durP1;ratioP1;P2;durP2;ratioP2
7181;SDS011;3632;42.724;23.298;2022-11-15T00:02:11;72.50;;;43.73;;
7181;SDS011;3632;42.724;23.298;2022-11-15T00:04:39;67.20;;;43.80;;
7181;SDS011;3632;42.724;23.298;2022-11-15T00:07:06;76.90;;;45.83;;
7181;SDS011;3632;42.724;23.298;2022-11-15T00:09:33;75.90;;;47.93;;
7181;SDS011;3632;42.724;23.298;2022-11-15T00:11:59;91.10;;;52.63;;
7181;SDS011;3632;42.724;23.298;2022-11-15T00:14:26;73.33;;;49.60;;
7181;SDS011;3632;42.724;23.298;2022-11-15T00:16:53;75.30;;;49.30;;
7181;SDS011;3632;42.724;23.298;2022-11-15T00:19:19;68.80;;;46.67;;
7181;SDS011;3632;42.724;23.298;2022-11-15T00:21:48;69.67;;;46.17;;
7181;SDS011;3632;42.724;23.298;2022-11-15T00:24:14;71.33;;;45.87;;
7181;SDS011;3632;42.724;23.298;2022-11-15T00:26:41;72.93;;;45.60;;
7181;SDS011;3632;42.724;23.298;2022-11-15T00:29:08;76.70;;;47.23;;
7181;SDS011;3632;42.724;23.298;2022-11-15T00:31:34;86.30;;;51.33;;
7181;SDS011;3632;42.724;23.298;2022-11-15T00:34:01;93.20;;;54.80;;
7181;SDS011;3632;42.724;23.298;2022-11-15T00:36:28;85.20;;;53.57;;
7181;SDS011;3632;42.724;23.298;2022-11-15T00:38:56;76.77;;;49.83;;
7181;SDS011;3632;42.724;23.298;2022-11-15T00:41:22;75.90;;;49.87;;
7181;SDS011;3632;42.724;23.298;2022-11-15T00:43:49;92.50;;;55.73;;
7181;SDS011;3632;42.724;23.298;2022-11-15T00:46:16;84.27;;;54.30;;
7181;SDS011;3632;42.724;23.298;2022-11-15T00:48:43;91.17;;;57.00;;
7181;SDS011;3632;42.724;23.298;2022-11-15T00:51:09;87.83;;;51.47;;
7181;SDS011;3632;42.724;23.298;2022-11-15T00:53:36;70.47;;;43.90;;
7181;SDS011;3632;42.724;23.298;2022-11-15T00:56:04;60.13;;;41.73;;
7181;SDS011;3632;42.724;23.298;2022-11-15T00:58:31;63.87;;;41.00;;
7181;SDS011;3632;42.724;23.298;2022-11-15T01:01:04;66.20;;;42.70;;
7181;SDS011;3632;42.724;23.298;2022-11-15T01:03:32;65.73;;;42.77;;
7181;SDS011;3632;42.724;23.298;2022-11-15T01:05:59;69.30;;;44.93;;
7181;SDS011;3632;42.724;23.298;2022-11-15T01:08:26;68.87;;;43.80;;
7181;SDS011;3632;42.724;23.298;2022-11-15T01:10:53;64.23;;;43.43;;
7181;SDS011;3632;42.724;23.298;2022-11-15T01:13:21;79.07;;;46.20;;
7181;SDS011;3632;42.724;23.298;2022-11-15T01:15:48;78.40;;;47.87;;
7181;SDS011;3632;42.724;23.298;2022-11-15T01:18:15;79.07;;;49.73;;
7181;SDS011;3632;42.724;23.298;2022-11-15T01:20:42;81.43;;;51.87;;
7181;SDS011;3632;42.724;23.298;2022-11-15T01:23:09;88.63;;;55.67;;
7181;SDS011;3632;42.724;23.298;2022-11-15T01:25:36;90.13;;;54.67;;
7181;SDS011;3632;42.724;23.298;2022-11-15T01:28:03;90.07;;;56.60;;
7181;SDS011;3632;42.724;23.298;2022-11-15T01:30:31;100.90;;;60.17;;
7181;SDS011;3632;42.724;23.298;2022-11-15T01:32:58;101.03;;;61.73;;
7181;SDS011;3632;42.724;23.298;2022-11-15T01:35:24;95.87;;;58.80;;
7181;SDS011;3632;42.724;23.298;2022-11-15T01:37:51;95.50;;;58.23;;
7181;SDS011;3632;42.724;23.298;2022-11-15T01:40:18;95.07;;;55.20;;
7181;SDS011;3632;42.724;23.298;2022-11-15T01:42:45;86.90;;;54.30;;
7181;SDS011;3632;42.724;23.298;2022-11-15T01:45:12;88.30;;;52.83;;
7181;SDS011;3632;42.724;23.298;2022-11-15T01:47:42;79.97;;;48.97;;
7181;SDS011;3632;42.724;23.298;2022-11-15T01:50:13;78.13;;;50.87;;
7181;SDS011;3632;42.724;23.298;2022-11-15T01:52:43;81.23;;;51.10;;
7181;SDS011;3632;42.724;23.298;2022-11-15T01:55:11;81.60;;;50.83;;
7181;SDS011;3632;42.724;23.298;2022-11-15T01:57:42;88.30;;;53.70;;
7181;SDS011;3632;42.724;23.298;2022-11-15T02:00:12;89.80;;;54.07;;
7181;SDS011;3632;42.724;23.298;2022-11-15T02:02:40;87.53;;;53.33;;
7181;SDS011;3632;42.724;23.298;2022-11-15T02:05:08;88.80;;;52.73;;
7181;SDS011;3632;42.724;23.298;2022-11-15T02:07:35;82.77;;;51.63;;
7181;SDS011;3632;42.724;23.298;2022-11-15T02:10:04;79.17;;;49.63;;
7181;SDS011;3632;42.724;23.298;2022-11-15T02:12:34;73.70;;;45.83;;
7181;SDS011;3632;42.724;23.298;2022-11-15T02:15:02;68.67;;;43.70;;
7181;SDS011;3632;42.724;23.298;2022-11-15T02:17:33;59.87;;;40.90;;
7181;SDS011;3632;42.724;23.298;2022-11-15T02:20:27;66.73;;;40.67;;
7181;SDS011;3632;42.724;23.298;2022-11-15T02:29:07;60.83;;;39.80;;
7181;SDS011;3632;42.724;23.298;2022-11-15T02:31:39;65.57;;;41.03;;
7181;SDS011;3632;42.724;23.298;2022-11-15T02:34:16;64.83;;;39.83;;
7181;SDS011;3632;42.724;23.298;2022-11-15T02:36:54;55.43;;;37.13;;
7181;SDS011;3632;42.724;23.298;2022-11-15T02:39:31;61.43;;;36.13;;
7181;SDS011;3632;42.724;23.298;2022-11-15T02:42:07;60.13;;;38.07;;
7181;SDS011;3632;42.724;23.298;2022-11-15T02:44:51;58.17;;;37.77;;
7181;SDS011;3632;42.724;23.298;2022-11-15T02:47:23;56.93;;;37.10;;
7181;SDS011;3632;42.724;23.298;2022-11-15T02:49:53;57.13;;;37.00;;
7181;SDS011;3632;42.724;23.298;2022-11-15T02:52:23;65.40;;;36.40;;
7181;SDS011;3632;42.724;23.298;2022-11-15T02:54:54;61.83;;;36.60;;
7181;SDS011;3632;42.724;23.298;2022-11-15T02:57:25;57.83;;;35.63;;
7181;SDS011;3632;42.724;23.298;2022-11-15T03:00:04;63.67;;;38.27;;
7181;SDS011;3632;42.724;23.298;2022-11-15T03:02:46;62.13;;;38.17;;
7181;SDS011;3632;42.724;23.298;2022-11-15T03:05:32;55.97;;;36.23;;
7181;SDS011;3632;42.724;23.298;2022-11-15T03:08:05;60.00;;;38.73;;
7181;SDS011;3632;42.724;23.298;2022-11-15T03:10:39;60.90;;;36.20;;
7181;SDS011;3632;42.724;23.298;2022-11-15T03:13:14;58.87;;;37.97;;
7181;SDS011;3632;42.724;23.298;2022-11-15T03:15:49;55.93;;;38.43;;
7181;SDS011;3632;42.724;23.298;2022-11-15T03:18:26;59.67;;;38.97;;
7181;SDS011;3632;42.724;23.298;2022-11-15T03:20:58;61.40;;;39.07;;
7181;SDS011;3632;42.724;23.298;2022-11-15T03:23:30;64.63;;;40.57;;
7181;SDS011;3632;42.724;23.298;2022-11-15T03:25:58;61.80;;;39.27;;
7181;SDS011;3632;42.724;23.298;2022-11-15T03:28:28;63.53;;;41.07;;
7181;SDS011;3632;42.724;23.298;2022-11-15T03:31:00;69.47;;;44.17;;
7181;SDS011;3632;42.724;23.298;2022-11-15T03:33:51;73.60;;;47.77;;
7181;SDS011;3632;42.724;23.298;2022-11-15T03:36:21;78.00;;;46.33;;
7181;SDS011;3632;42.724;23.298;2022-11-15T03:38:51;75.60;;;48.50;;
7181;SDS011;3632;42.724;23.298;2022-11-15T03:41:22;72.17;;;47.13;;
7181;SDS011;3632;42.724;23.298;2022-11-15T03:43:56;82.53;;;49.30;;
7181;SDS011;3632;42.724;23.298;2022-11-15T03:46:28;84.70;;;50.40;;
7181;SDS011;3632;42.724;23.298;2022-11-15T03:49:05;83.67;;;50.00;;
7181;SDS011;3632;42.724;23.298;2022-11-15T03:51:35;89.60;;;51.53;;
7181;SDS011;3632;42.724;23.298;2022-11-15T03:54:02;84.73;;;50.03;;
7181;SDS011;3632;42.724;23.298;2022-11-15T03:56:30;88.37;;;50.80;;
7181;SDS011;3632;42.724;23.298;2022-11-15T03:58:56;85.37;;;49.83;;
7181;SDS011;3632;42.724;23.298;2022-11-15T04:01:23;96.00;;;51.43;;
7181;SDS011;3632;42.724;23.298;2022-11-15T04:03:50;93.40;;;50.53;;
7181;SDS011;3632;42.724;23.298;2022-11-15T04:06:18;101.90;;;52.23;;
7181;SDS011;3632;42.724;23.298;2022-11-15T04:08:45;110.53;;;55.37;;
7181;SDS011;3632;42.724;23.298;2022-11-15T04:11:11;103.97;;;53.57;;
7181;SDS011;3632;42.724;23.298;2022-11-15T04:13:38;105.07;;;54.03;;
7181;SDS011;3632;42.724;23.298;2022-11-15T04:16:05;106.83;;;55.73;;
7181;SDS011;3632;42.724;23.298;2022-11-15T04:18:32;111.70;;;57.57;;
7181;SDS011;3632;42.724;23.298;2022-11-15T04:20:58;119.43;;;60.00;;
7181;SDS011;3632;42.724;23.298;2022-11-15T04:23:44;114.73;;;62.97;;
7181;SDS011;3632;42.724;23.298;2022-11-15T04:26:28;125.33;;;67.40;;
7181;SDS011;3632;42.724;23.298;2022-11-15T04:28:55;125.00;;;65.57;;
7181;SDS011;3632;42.724;23.298;2022-11-15T04:31:39;121.17;;;64.07;;
7181;SDS011;3632;42.724;23.298;2022-11-15T04:34:06;122.77;;;63.17;;
7181;SDS011;3632;42.724;23.298;2022-11-15T04:36:33;116.67;;;61.80;;
7181;SDS011;3632;42.724;23.298;2022-11-15T04:39:19;114.93;;;57.83;;
7181;SDS011;3632;42.724;23.298;2022-11-15T04:41:45;103.03;;;54.17;;
7181;SDS011;3632;42.724;23.298;2022-11-15T04:44:12;104.50;;;53.13;;
7181;SDS011;3632;42.724;23.298;2022-11-15T04:46:39;93.60;;;51.37;;
7181;SDS011;3632;42.724;23.298;2022-11-15T04:49:07;106.37;;;54.10;;
7181;SDS011;3632;42.724;23.298;2022-11-15T04:51:34;108.67;;;56.40;;
7181;SDS011;3632;42.724;23.298;2022-11-15T04:54:01;105.50;;;54.10;;
7181;SDS011;3632;42.724;23.298;2022-11-15T04:56:33;99.33;;;49.63;;
7181;SDS011;3632;42.724;23.298;2022-11-15T04:59:00;106.30;;;50.37;;
7181;SDS011;3632;42.724;23.298;2022-11-15T05:01:26;94.80;;;51.63;;
7181;SDS011;3632;42.724;23.298;2022-11-15T05:03:53;134.87;;;72.43;;
7181;SDS011;3632;42.724;23.298;2022-11-15T05:06:37;80.83;;;46.97;;
7181;SDS011;3632;42.724;23.298;2022-11-15T05:09:04;79.33;;;42.37;;
7181;SDS011;3632;42.724;23.298;2022-11-15T05:11:31;78.30;;;41.47;;
7181;SDS011;3632;42.724;23.298;2022-11-15T05:13:59;73.03;;;39.00;;
7181;SDS011;3632;42.724;23.298;2022-11-15T05:16:25;70.00;;;37.43;;
7181;SDS011;3632;42.724;23.298;2022-11-15T05:18:52;75.07;;;39.00;;
7181;SDS011;3632;42.724;23.298;2022-11-15T05:21:19;69.50;;;36.50;;
7181;SDS011;3632;42.724;23.298;2022-11-15T05:23:46;63.50;;;34.30;;
7181;SDS011;3632;42.724;23.298;2022-11-15T05:26:13;61.00;;;34.50;;
7181;SDS011;3632;42.724;23.298;2022-11-15T05:28:44;67.83;;;36.77;;
7181;SDS011;3632;42.724;23.298;2022-11-15T05:31:11;69.03;;;37.47;;
7181;SDS011;3632;42.724;23.298;2022-11-15T05:33:40;69.67;;;38.87;;
7181;SDS011;3632;42.724;23.298;2022-11-15T05:36:09;75.63;;;39.63;;
7181;SDS011;3632;42.724;23.298;2022-11-15T05:38:40;68.57;;;40.10;;
7181;SDS011;3632;42.724;23.298;2022-11-15T05:41:08;76.70;;;39.97;;
7181;SDS011;3632;42.724;23.298;2022-11-15T05:43:35;79.77;;;41.77;;
7181;SDS011;3632;42.724;23.298;2022-11-15T05:46:06;70.67;;;40.60;;
7181;SDS011;3632;42.724;23.298;2022-11-15T05:48:33;73.53;;;40.83;;
7181;SDS011;3632;42.724;23.298;2022-11-15T05:51:02;80.33;;;41.37;;
7181;SDS011;3632;42.724;23.298;2022-11-15T05:53:31;77.23;;;40.03;;
7181;SDS011;3632;42.724;23.298;2022-11-15T05:55:58;84.27;;;41.50;;
7181;SDS011;3632;42.724;23.298;2022-11-15T05:58:24;81.60;;;42.23;;
7181;SDS011;3632;42.724;23.298;2022-11-15T06:00:51;86.17;;;43.73;;
7181;SDS011;3632;42.724;23.298;2022-11-15T06:03:19;86.93;;;43.47;;
7181;SDS011;3632;42.724;23.298;2022-11-15T06:05:46;95.40;;;48.90;;
7181;SDS011;3632;42.724;23.298;2022-11-15T06:08:13;96.63;;;46.03;;
7181;SDS011;3632;42.724;23.298;2022-11-15T06:10:39;77.03;;;39.67;;
7181;SDS011;3632;42.724;23.298;2022-11-15T06:13:06;84.27;;;38.43;;
7181;SDS011;3632;42.724;23.298;2022-11-15T06:15:33;76.87;;;37.93;;
7181;SDS011;3632;42.724;23.298;2022-11-15T06:18:00;76.23;;;37.67;;
7181;SDS011;3632;42.724;23.298;2022-11-15T06:20:28;83.00;;;40.13;;
7181;SDS011;3632;42.724;23.298;2022-11-15T06:22:58;83.00;;;40.73;;
7181;SDS011;3632;42.724;23.298;2022-11-15T06:25:26;83.40;;;40.13;;
7181;SDS011;3632;42.724;23.298;2022-11-15T06:27:53;95.80;;;41.30;;
7181;SDS011;3632;42.724;23.298;2022-11-15T06:30:21;86.60;;;41.63;;
7181;SDS011;3632;42.724;23.298;2022-11-15T06:32:48;79.93;;;40.33;;
7181;SDS011;3632;42.724;23.298;2022-11-15T06:35:15;89.87;;;42.33;;
7181;SDS011;3632;42.724;23.298;2022-11-15T06:37:43;92.37;;;43.57;;
7181;SDS011;3632;42.724;23.298;2022-11-15T06:40:10;92.83;;;42.37;;
7181;SDS011;3632;42.724;23.298;2022-11-15T06:42:37;94.60;;;43.77;;
7181;SDS011;3632;42.724;23.298;2022-11-15T06:45:04;91.80;;;41.70;;
7181;SDS011;3632;42.724;23.298;2022-11-15T06:47:31;99.13;;;41.13;;
7181;SDS011;3632;42.724;23.298;2022-11-15T06:49:58;105.87;;;48.90;;
7181;SDS011;3632;42.724;23.298;2022-11-15T06:52:25;102.57;;;46.33;;
7181;SDS011;3632;42.724;23.298;2022-11-15T06:54:53;116.43;;;49.17;;
7181;SDS011;3632;42.724;23.298;2022-11-15T06:57:20;105.40;;;47.67;;
7181;SDS011;3632;42.724;23.298;2022-11-15T06:59:46;107.17;;;47.60;;
7181;SDS011;3632;42.724;23.298;2022-11-15T07:02:13;109.77;;;49.63;;
7181;SDS011;3632;42.724;23.298;2022-11-15T07:04:40;107.40;;;50.17;;
7181;SDS011;3632;42.724;23.298;2022-11-15T07:07:06;112.50;;;48.87;;
7181;SDS011;3632;42.724;23.298;2022-11-15T07:09:33;110.00;;;50.47;;
7181;SDS011;3632;42.724;23.298;2022-11-15T07:12:01;111.13;;;49.53;;
7181;SDS011;3632;42.724;23.298;2022-11-15T07:14:28;110.20;;;48.77;;
7181;SDS011;3632;42.724;23.298;2022-11-15T07:16:55;113.13;;;50.57;;
7181;SDS011;3632;42.724;23.298;2022-11-15T07:19:22;109.90;;;48.97;;
7181;SDS011;3632;42.724;23.298;2022-11-15T07:21:49;98.27;;;46.17;;
7181;SDS011;3632;42.724;23.298;2022-11-15T07:24:15;82.97;;;41.90;;
7181;SDS011;3632;42.724;23.298;2022-11-15T07:26:42;78.70;;;40.93;;
7181;SDS011;3632;42.724;23.298;2022-11-15T07:29:10;82.83;;;42.17;;
7181;SDS011;3632;42.724;23.298;2022-11-15T07:31:38;95.90;;;46.30;;
7181;SDS011;3632;42.724;23.298;2022-11-15T07:34:06;94.60;;;50.43;;
7181;SDS011;3632;42.724;23.298;2022-11-15T07:36:33;108.73;;;51.23;;
7181;SDS011;3632;42.724;23.298;2022-11-15T07:39:00;108.17;;;51.97;;
7181;SDS011;3632;42.724;23.298;2022-11-15T07:41:27;104.30;;;50.50;;
7181;SDS011;3632;42.724;23.298;2022-11-15T07:43:55;112.27;;;53.13;;
7181;SDS011;3632;42.724;23.298;2022-11-15T07:46:24;102.97;;;53.63;;
7181;SDS011;3632;42.724;23.298;2022-11-15T07:48:50;102.60;;;52.53;;
7181;SDS011;3632;42.724;23.298;2022-11-15T07:51:17;111.87;;;54.57;;
7181;SDS011;3632;42.724;23.298;2022-11-15T07:53:44;116.13;;;55.77;;
7181;SDS011;3632;42.724;23.298;2022-11-15T07:56:11;116.47;;;56.03;;
7181;SDS011;3632;42.724;23.298;2022-11-15T07:58:38;114.30;;;55.63;;
7181;SDS011;3632;42.724;23.298;2022-11-15T08:01:05;105.90;;;51.53;;
7181;SDS011;3632;42.724;23.298;2022-11-15T08:03:35;107.73;;;53.83;;
7181;SDS011;3632;42.724;23.298;2022-11-15T08:06:02;110.40;;;54.97;;
7181;SDS011;3632;42.724;23.298;2022-11-15T08:08:29;124.43;;;57.43;;
7181;SDS011;3632;42.724;23.298;2022-11-15T08:10:57;113.87;;;54.70;;
7181;SDS011;3632;42.724;23.298;2022-11-15T08:13:23;123.97;;;58.17;;
7181;SDS011;3632;42.724;23.298;2022-11-15T08:15:50;129.87;;;59.77;;
7181;SDS011;3632;42.724;23.298;2022-11-15T08:18:17;120.27;;;59.80;;
7181;SDS011;3632;42.724;23.298;2022-11-15T08:20:45;124.97;;;58.43;;
7181;SDS011;3632;42.724;23.298;2022-11-15T08:23:12;122.10;;;60.57;;
7181;SDS011;3632;42.724;23.298;2022-11-15T08:25:39;130.47;;;62.23;;
7181;SDS011;3632;42.724;23.298;2022-11-15T08:28:06;127.13;;;60.43;;
7181;SDS011;3632;42.724;23.298;2022-11-15T08:30:34;124.57;;;60.40;;
7181;SDS011;3632;42.724;23.298;2022-11-15T08:33:03;120.20;;;60.37;;
7181;SDS011;3632;42.724;23.298;2022-11-15T08:35:30;122.13;;;61.87;;
7181;SDS011;3632;42.724;23.298;2022-11-15T08:37:58;119.60;;;59.83;;
7181;SDS011;3632;42.724;23.298;2022-11-15T08:40:25;126.87;;;62.30;;
7181;SDS011;3632;42.724;23.298;2022-11-15T08:42:52;121.07;;;59.07;;
7181;SDS011;3632;42.724;23.298;2022-11-15T08:45:19;111.43;;;58.53;;
7181;SDS011;3632;42.724;23.298;2022-11-15T08:47:46;107.27;;;55.87;;
7181;SDS011;3632;42.724;23.298;2022-11-15T08:50:14;97.47;;;55.53;;
7181;SDS011;3632;42.724;23.298;2022-11-15T08:52:41;105.37;;;55.63;;
7181;SDS011;3632;42.724;23.298;2022-11-15T08:55:09;121.77;;;62.43;;
7181;SDS011;3632;42.724;23.298;2022-11-15T08:57:36;112.57;;;58.17;;
7181;SDS011;3632;42.724;23.298;2022-11-15T09:00:03;112.83;;;59.23;;
7181;SDS011;3632;42.724;23.298;2022-11-15T09:02:30;115.67;;;58.53;;
7181;SDS011;3632;42.724;23.298;2022-11-15T09:04:57;108.53;;;57.37;;
7181;SDS011;3632;42.724;23.298;2022-11-15T09:07:24;112.80;;;57.87;;
7181;SDS011;3632;42.724;23.298;2022-11-15T09:09:51;110.30;;;58.27;;
7181;SDS011;3632;42.724;23.298;2022-11-15T09:12:19;106.07;;;57.60;;
7181;SDS011;3632;42.724;23.298;2022-11-15T09:14:45;104.03;;;56.23;;
7181;SDS011;3632;42.724;23.298;2022-11-15T09:17:12;105.53;;;56.67;;
7181;SDS011;3632;42.724;23.298;2022-11-15T09:19:40;106.63;;;55.10;;
7181;SDS011;3632;42.724;23.298;2022-11-15T09:22:07;95.00;;;56.10;;
7181;SDS011;3632;42.724;23.298;2022-11-15T09:24:35;95.77;;;55.37;;
7181;SDS011;3632;42.724;23.298;2022-11-15T09:27:08;100.07;;;57.97;;
7181;SDS011;3632;42.724;23.298;2022-11-15T09:29:38;106.90;;;56.17;;
7181;SDS011;3632;42.724;23.298;2022-11-15T09:32:05;106.27;;;57.80;;
7181;SDS011;3632;42.724;23.298;2022-11-15T09:34:32;109.37;;;59.20;;
7181;SDS011;3632;42.724;23.298;2022-11-15T09:37:00;112.73;;;59.57;;
7181;SDS011;3632;42.724;23.298;2022-11-15T09:39:40;114.47;;;60.53;;
7181;SDS011;3632;42.724;23.298;2022-11-15T09:42:15;106.07;;;58.33;;
7181;SDS011;3632;42.724;23.298;2022-11-15T09:44:59;105.03;;;57.83;;
7181;SDS011;3632;42.724;23.298;2022-11-15T09:47:46;110.07;;;58.57;;
7181;SDS011;3632;42.724;23.298;2022-11-15T09:50:30;101.80;;;55.40;;
7181;SDS011;3632;42.724;23.298;2022-11-15T09:53:08;106.30;;;60.53;;
7181;SDS011;3632;42.724;23.298;2022-11-15T09:55:44;94.73;;;53.30;;
7181;SDS011;3632;42.724;23.298;2022-11-15T09:58:34;99.73;;;54.00;;
7181;SDS011;3632;42.724;23.298;2022-11-15T10:01:36;101.53;;;55.43;;
7181;SDS011;3632;42.724;23.298;2022-11-15T10:04:09;91.83;;;53.00;;
7181;SDS011;3632;42.724;23.298;2022-11-15T10:06:36;87.57;;;51.37;;
7181;SDS011;3632;42.724;23.298;2022-11-15T10:09:12;94.27;;;53.93;;
7181;SDS011;3632;42.724;23.298;2022-11-15T10:11:41;86.23;;;52.20;;
7181;SDS011;3632;42.724;23.298;2022-11-15T10:14:10;84.93;;;51.47;;
7181;SDS011;3632;42.724;23.298;2022-11-15T10:16:52;88.57;;;48.80;;
7181;SDS011;3632;42.724;23.298;2022-11-15T10:19:42;76.93;;;49.90;;
7181;SDS011;3632;42.724;23.298;2022-11-15T10:22:27;85.83;;;50.40;;
7181;SDS011;3632;42.724;23.298;2022-11-15T10:25:01;79.23;;;50.30;;
7181;SDS011;3632;42.724;23.298;2022-11-15T10:27:39;79.13;;;50.10;;
7181;SDS011;3632;42.724;23.298;2022-11-15T10:30:10;82.03;;;49.33;;
7181;SDS011;3632;42.724;23.298;2022-11-15T10:32:40;79.57;;;51.03;;
7181;SDS011;3632;42.724;23.298;2022-11-15T10:35:16;76.23;;;49.63;;
7181;SDS011;3632;42.724;23.298;2022-11-15T10:37:47;70.77;;;48.07;;
7181;SDS011;3632;42.724;23.298;2022-11-15T10:40:15;70.53;;;47.77;;
7181;SDS011;3632;42.724;23.298;2022-11-15T10:42:44;69.30;;;47.40;;
7181;SDS011;3632;42.724;23.298;2022-11-15T10:45:25;68.87;;;47.30;;
7181;SDS011;3632;42.724;23.298;2022-11-15T10:47:56;66.17;;;46.13;;
7181;SDS011;3632;42.724;23.298;2022-11-15T10:50:46;78.13;;;47.30;;
7181;SDS011;3632;42.724;23.298;2022-11-15T10:53:17;68.53;;;47.43;;
7181;SDS011;3632;42.724;23.298;2022-11-15T10:55:49;70.43;;;47.50;;
7181;SDS011;3632;42.724;23.298;2022-11-15T10:58:20;68.17;;;47.33;;
7181;SDS011;3632;42.724;23.298;2022-11-15T11:00:53;67.47;;;48.07;;
7181;SDS011;3632;42.724;23.298;2022-11-15T11:03:29;77.27;;;51.03;;
7181;SDS011;3632;42.724;23.298;2022-11-15T11:06:03;82.37;;;53.43;;
7181;SDS011;3632;42.724;23.298;2022-11-15T11:08:31;80.50;;;54.53;;
7181;SDS011;3632;42.724;23.298;2022-11-15T11:10:59;88.67;;;56.77;;
7181;SDS011;3632;42.724;23.298;2022-11-15T11:13:28;86.50;;;56.03;;
7181;SDS011;3632;42.724;23.298;2022-11-15T11:19:05;83.90;;;56.90;;
7181;SDS011;3632;42.724;23.298;2022-11-15T11:21:44;84.30;;;55.87;;
7181;SDS011;3632;42.724;23.298;2022-11-15T11:24:18;83.63;;;55.57;;
7181;SDS011;3632;42.724;23.298;2022-11-15T11:26:56;80.67;;;54.57;;
7181;SDS011;3632;42.724;23.298;2022-11-15T11:29:38;82.57;;;57.53;;
7181;SDS011;3632;42.724;23.298;2022-11-15T11:32:22;74.67;;;52.80;;
7181;SDS011;3632;42.724;23.298;2022-11-15T11:35:02;83.03;;;55.87;;
7181;SDS011;3632;42.724;23.298;2022-11-15T11:37:39;76.60;;;53.20;;
7181;SDS011;3632;42.724;23.298;2022-11-15T11:40:16;73.87;;;53.73;;
7181;SDS011;3632;42.724;23.298;2022-11-15T11:42:53;74.50;;;52.67;;
7181;SDS011;3632;42.724;23.298;2022-11-15T11:45:27;74.80;;;52.90;;
7181;SDS011;3632;42.724;23.298;2022-11-15T11:48:18;68.80;;;51.20;;
7181;SDS011;3632;42.724;23.298;2022-11-15T11:50:51;72.93;;;50.73;;
7181;SDS011;3632;42.724;23.298;2022-11-15T11:53:27;73.03;;;50.97;;
7181;SDS011;3632;42.724;23.298;2022-11-15T11:55:58;64.40;;;50.13;;
7181;SDS011;3632;42.724;23.298;2022-11-15T11:58:33;65.17;;;50.60;;
7181;SDS011;3632;42.724;23.298;2022-11-15T12:01:04;70.97;;;50.07;;
7181;SDS011;3632;42.724;23.298;2022-11-15T12:03:40;66.37;;;50.50;;
7181;SDS011;3632;42.724;23.298;2022-11-15T12:06:14;67.23;;;50.20;;
7181;SDS011;3632;42.724;23.298;2022-11-15T12:08:50;61.23;;;48.20;;
7181;SDS011;3632;42.724;23.298;2022-11-15T12:11:23;59.57;;;46.50;;
7181;SDS011;3632;42.724;23.298;2022-11-15T12:13:57;63.13;;;49.83;;
7181;SDS011;3632;42.724;23.298;2022-11-15T12:16:27;69.30;;;49.47;;
7181;SDS011;3632;42.724;23.298;2022-11-15T12:18:56;64.83;;;48.87;;
7181;SDS011;3632;42.724;23.298;2022-11-15T12:21:30;66.30;;;50.87;;
7181;SDS011;3632;42.724;23.298;2022-11-15T12:24:04;69.80;;;52.23;;
7181;SDS011;3632;42.724;23.298;2022-11-15T12:26:39;72.73;;;53.00;;
7181;SDS011;3632;42.724;23.298;2022-11-15T12:29:10;70.03;;;53.10;;
7181;SDS011;3632;42.724;23.298;2022-11-15T12:31:42;70.20;;;52.87;;
7181;SDS011;3632;42.724;23.298;2022-11-15T12:34:28;74.03;;;52.03;;
7181;SDS011;3632;42.724;23.298;2022-11-15T12:37:04;74.17;;;53.67;;
7181;SDS011;3632;42.724;23.298;2022-11-15T12:40:17;72.23;;;53.53;;
7181;SDS011;3632;42.724;23.298;2022-11-15T12:46:10;75.20;;;52.63;;
7181;SDS011;3632;42.724;23.298;2022-11-15T12:48:46;72.73;;;52.13;;
7181;SDS011;3632;42.724;23.298;2022-11-15T12:51:21;82.10;;;52.87;;
7181;SDS011;3632;42.724;23.298;2022-11-15T12:57:30;69.23;;;50.63;;
7181;SDS011;3632;42.724;23.298;2022-11-15T13:00:05;69.03;;;49.77;;
7181;SDS011;3632;42.724;23.298;2022-11-15T13:03:16;66.27;;;49.97;;
7181;SDS011;3632;42.724;23.298;2022-11-15T13:08:57;70.57;;;52.10;;
7181;SDS011;3632;42.724;23.298;2022-11-15T13:11:43;71.53;;;52.30;;
7181;SDS011;3632;42.724;23.298;2022-11-15T13:17:26;64.40;;;50.27;;
7181;SDS011;3632;42.724;23.298;2022-11-15T13:20:07;67.73;;;50.50;;
7181;SDS011;3632;42.724;23.298;2022-11-15T13:22:50;62.07;;;47.40;;
7181;SDS011;3632;42.724;23.298;2022-11-15T13:25:18;61.90;;;47.13;;
7181;SDS011;3632;42.724;23.298;2022-11-15T13:27:54;67.43;;;49.13;;
7181;SDS011;3632;42.724;23.298;2022-11-15T13:30:25;65.90;;;49.40;;
7181;SDS011;3632;42.724;23.298;2022-11-15T13:32:53;71.07;;;48.63;;
7181;SDS011;3632;42.724;23.298;2022-11-15T13:35:21;62.50;;;48.07;;
7181;SDS011;3632;42.724;23.298;2022-11-15T13:37:49;65.90;;;48.20;;
7181;SDS011;3632;42.724;23.298;2022-11-15T13:40:25;64.13;;;48.20;;
7181;SDS011;3632;42.724;23.298;2022-11-15T13:42:55;64.00;;;47.23;;
7181;SDS011;3632;42.724;23.298;2022-11-15T13:45:24;64.57;;;47.90;;
7181;SDS011;3632;42.724;23.298;2022-11-15T13:47:53;65.33;;;47.53;;
7181;SDS011;3632;42.724;23.298;2022-11-15T13:50:23;63.37;;;48.43;;
7181;SDS011;3632;42.724;23.298;2022-11-15T13:52:53;60.07;;;46.03;;
7181;SDS011;3632;42.724;23.298;2022-11-15T13:55:25;60.77;;;45.03;;
7181;SDS011;3632;42.724;23.298;2022-11-15T13:57:53;59.93;;;44.77;;
7181;SDS011;3632;42.724;23.298;2022-11-15T14:00:32;59.00;;;43.63;;
7181;SDS011;3632;42.724;23.298;2022-11-15T14:03:05;59.40;;;43.63;;
7181;SDS011;3632;42.724;23.298;2022-11-15T14:05:34;56.53;;;41.43;;
7181;SDS011;3632;42.724;23.298;2022-11-15T14:08:02;48.50;;;37.90;;
7181;SDS011;3632;42.724;23.298;2022-11-15T14:10:30;54.10;;;40.23;;
7181;SDS011;3632;42.724;23.298;2022-11-15T14:12:59;56.80;;;40.53;;
7181;SDS011;3632;42.724;23.298;2022-11-15T14:15:28;56.00;;;41.53;;
7181;SDS011;3632;42.724;23.298;2022-11-15T14:17:58;52.50;;;40.67;;
7181;SDS011;3632;42.724;23.298;2022-11-15T14:20:26;55.43;;;40.70;;
7181;SDS011;3632;42.724;23.298;2022-11-15T14:22:56;54.33;;;40.13;;
7181;SDS011;3632;42.724;23.298;2022-11-15T14:25:24;51.17;;;39.13;;
7181;SDS011;3632;42.724;23.298;2022-11-15T14:30:44;57.63;;;41.13;;
7181;SDS011;3632;42.724;23.298;2022-11-15T14:33:18;55.40;;;39.23;;
7181;SDS011;3632;42.724;23.298;2022-11-15T14:35:48;54.93;;;40.20;;
7181;SDS011;3632;42.724;23.298;2022-11-15T14:38:15;58.70;;;41.97;;
7181;SDS011;3632;42.724;23.298;2022-11-15T14:40:42;60.47;;;41.87;;
7181;SDS011;3632;42.724;23.298;2022-11-15T14:43:09;62.33;;;43.93;;
7181;SDS011;3632;42.724;23.298;2022-11-15T14:45:37;59.13;;;42.00;;
7181;SDS011;3632;42.724;23.298;2022-11-15T14:48:06;54.87;;;40.60;;
7181;SDS011;3632;42.724;23.298;2022-11-15T14:50:33;60.53;;;42.63;;
7181;SDS011;3632;42.724;23.298;2022-11-15T14:53:01;55.60;;;40.80;;
7181;SDS011;3632;42.724;23.298;2022-11-15T14:55:28;58.47;;;41.27;;
7181;SDS011;3632;42.724;23.298;2022-11-15T14:57:57;65.73;;;41.63;;
7181;SDS011;3632;42.724;23.298;2022-11-15T15:00:24;56.03;;;41.47;;
7181;SDS011;3632;42.724;23.298;2022-11-15T15:02:52;65.83;;;45.40;;
7181;SDS011;3632;42.724;23.298;2022-11-15T15:05:22;59.40;;;43.50;;
7181;SDS011;3632;42.724;23.298;2022-11-15T15:07:50;69.37;;;46.00;;
7181;SDS011;3632;42.724;23.298;2022-11-15T15:10:18;73.50;;;50.97;;
7181;SDS011;3632;42.724;23.298;2022-11-15T15:12:45;74.70;;;51.60;;
7181;SDS011;3632;42.724;23.298;2022-11-15T15:15:13;71.90;;;50.67;;
7181;SDS011;3632;42.724;23.298;2022-11-15T15:17:47;77.13;;;53.83;;